Overview Statistics Trail Chart Weather Telemetry Raw packets
 

This is the latest recevied weather packets stored in our database for station/object HP1CDW-10. If no packets are shown the sender has not sent any weather packets the latest 10 day(s).

<< 24 25 26 27 28 29 30 >>
Time Temp. Humidity Pressure Rain* Wind** Luminosity Snow
1788202863 33.89° C 52% 1004 hPa - - - -
1788202258 33.33° C 53% 1004 hPa - - - -
1788201048 33.33° C 52% 1004 hPa - - - -
1788199839 33.33° C 52% 1004.4 hPa - - - -
1788199234 33.33° C 52% 1004.4 hPa - - - -
1788198629 33.89° C 52% 1004.3 hPa - - - -
1788198024 33.89° C 51% 1004.4 hPa - - - -
1788196815 33.33° C 53% 1004.6 hPa - - - -
1788196210 33.33° C 52% 1004.8 hPa - - - -
1788195605 32.78° C 54% 1005 hPa - - - -
1788195001 32.78° C 54% 1005.1 hPa - - - -
1788194396 33.33° C 54% 1005.2 hPa - - - -
1788193791 32.78° C 55% 1005.4 hPa - - - -
1788193186 34.44° C 50% 1005.5 hPa - - - -
1788192581 32.78° C 54% 1005.6 hPa - - - -
1788191977 32.78° C 54% 1005.8 hPa - - - -
1788190767 33.33° C 54% 1006.3 hPa - - - -
1788188348 34.44° C 51% 1005.8 hPa - - - -
1788187743 34.44° C 51% 1005.4 hPa - - - -
1788187138 33.89° C 52% 1005.5 hPa - - - -
1788184719 33.33° C 54% 1005.4 hPa - - - -
1788183510 34.44° C 51% 1005.1 hPa - - - -
1788182905 33.89° C 52% 1005 hPa - - - -
1788182300 34.44° C 50% 1004.8 hPa - - - -
1788181695 34.44° C 50% 1004.4 hPa - - - -

* Rain since midnight (hover to see other rain measurements)
** Current wind speed in m/s (hover to see current wind gust speed)